Terminal Aerodrome Forecast
Issued by NWS

Home | Current Version | Previous Version | Graphics & Text | Print | Product List | Glossary On
Versions: 1 2 3 4 5 6 7 8 9 10 11 12 13 14 15 16 17 18 19 20 21 22 23
238
FTUS43 KUNR 242320
TAFGCC
TAF
KGCC 242320Z 2500/2524 01008KT P6SM VCSH SCT010 OVC020
     FM250500 35005KT P6SM -SHRA OVC008
     FM251200 03005KT P6SM OVC010
     FM251700 17005KT P6SM BKN020
     FM252100 18005KT P6SM BKN035
     FM252300 07005KT P6SM BKN060=

USA.gov is the U.S. government's official web portal to all federal, state and local government web resources and services.